sensor_id;sensor_type;location;lat;lon;timestamp;P1;durP1;ratioP1;P2;durP2;ratioP2
31087;SDS011;17745;55.914;37.554;2022-10-16T00:03:07;22.05;;;6.65;;
31087;SDS011;17745;55.914;37.554;2022-10-16T00:05:40;14.15;;;5.65;;
31087;SDS011;17745;55.914;37.554;2022-10-16T00:08:11;11.10;;;5.55;;
31087;SDS011;17745;55.914;37.554;2022-10-16T00:10:39;15.98;;;6.22;;
31087;SDS011;17745;55.914;37.554;2022-10-16T00:13:08;16.52;;;6.18;;
31087;SDS011;17745;55.914;37.554;2022-10-16T00:15:42;10.88;;;5.93;;
31087;SDS011;17745;55.914;37.554;2022-10-16T00:18:13;11.70;;;5.75;;
31087;SDS011;17745;55.914;37.554;2022-10-16T00:20:42;16.40;;;6.05;;
31087;SDS011;17745;55.914;37.554;2022-10-16T00:23:30;15.27;;;7.12;;
31087;SDS011;17745;55.914;37.554;2022-10-16T00:26:02;19.70;;;6.65;;
31087;SDS011;17745;55.914;37.554;2022-10-16T00:28:33;12.60;;;5.68;;
31087;SDS011;17745;55.914;37.554;2022-10-16T00:31:04;9.77;;;5.87;;
31087;SDS011;17745;55.914;37.554;2022-10-16T00:33:48;14.85;;;6.70;;
31087;SDS011;17745;55.914;37.554;2022-10-16T00:36:32;14.73;;;6.32;;
31087;SDS011;17745;55.914;37.554;2022-10-16T00:39:01;10.38;;;5.60;;
31087;SDS011;17745;55.914;37.554;2022-10-16T00:41:33;11.38;;;5.80;;
31087;SDS011;17745;55.914;37.554;2022-10-16T00:47:15;9.38;;;5.68;;
31087;SDS011;17745;55.914;37.554;2022-10-16T00:49:55;10.75;;;6.20;;
31087;SDS011;17745;55.914;37.554;2022-10-16T00:52:39;12.77;;;6.30;;
31087;SDS011;17745;55.914;37.554;2022-10-16T00:55:14;13.27;;;6.40;;
31087;SDS011;17745;55.914;37.554;2022-10-16T00:57:55;11.95;;;5.68;;
31087;SDS011;17745;55.914;37.554;2022-10-16T01:00:28;10.65;;;6.18;;
31087;SDS011;17745;55.914;37.554;2022-10-16T01:03:01;12.23;;;5.87;;
31087;SDS011;17745;55.914;37.554;2022-10-16T01:05:42;13.05;;;6.53;;
31087;SDS011;17745;55.914;37.554;2022-10-16T01:09:11;10.90;;;5.60;;
31087;SDS011;17745;55.914;37.554;2022-10-16T01:11:50;12.65;;;6.40;;
31087;SDS011;17745;55.914;37.554;2022-10-16T01:14:38;14.30;;;7.10;;
31087;SDS011;17745;55.914;37.554;2022-10-16T01:17:34;14.95;;;6.53;;
31087;SDS011;17745;55.914;37.554;2022-10-16T01:20:09;11.73;;;6.50;;
31087;SDS011;17745;55.914;37.554;2022-10-16T01:22:50;13.93;;;6.32;;
31087;SDS011;17745;55.914;37.554;2022-10-16T01:25:56;11.05;;;6.47;;
31087;SDS011;17745;55.914;37.554;2022-10-16T01:29:52;12.80;;;5.55;;
31087;SDS011;17745;55.914;37.554;2022-10-16T01:32:28;11.63;;;6.03;;
31087;SDS011;17745;55.914;37.554;2022-10-16T01:35:03;12.73;;;6.12;;
31087;SDS011;17745;55.914;37.554;2022-10-16T01:37:40;14.35;;;5.95;;
31087;SDS011;17745;55.914;37.554;2022-10-16T01:40:16;11.82;;;6.07;;
31087;SDS011;17745;55.914;37.554;2022-10-16T01:42:50;15.77;;;6.35;;
31087;SDS011;17745;55.914;37.554;2022-10-16T01:45:28;14.73;;;6.07;;
31087;SDS011;17745;55.914;37.554;2022-10-16T01:48:12;17.55;;;7.22;;
31087;SDS011;17745;55.914;37.554;2022-10-16T01:50:52;11.20;;;5.72;;
31087;SDS011;17745;55.914;37.554;2022-10-16T01:53:25;13.40;;;5.90;;
31087;SDS011;17745;55.914;37.554;2022-10-16T01:55:55;20.95;;;6.80;;
31087;SDS011;17745;55.914;37.554;2022-10-16T01:58:28;14.68;;;6.20;;
31087;SDS011;17745;55.914;37.554;2022-10-16T02:01:04;11.07;;;6.05;;
31087;SDS011;17745;55.914;37.554;2022-10-16T02:03:36;11.23;;;6.10;;
31087;SDS011;17745;55.914;37.554;2022-10-16T02:06:10;12.27;;;6.43;;
31087;SDS011;17745;55.914;37.554;2022-10-16T02:08:41;14.65;;;5.80;;
31087;SDS011;17745;55.914;37.554;2022-10-16T02:11:10;10.88;;;5.75;;
31087;SDS011;17745;55.914;37.554;2022-10-16T02:13:41;11.85;;;5.80;;
31087;SDS011;17745;55.914;37.554;2022-10-16T02:16:15;12.43;;;5.90;;
31087;SDS011;17745;55.914;37.554;2022-10-16T02:18:47;17.70;;;5.85;;
31087;SDS011;17745;55.914;37.554;2022-10-16T02:21:16;19.85;;;6.75;;
31087;SDS011;17745;55.914;37.554;2022-10-16T02:23:53;13.90;;;5.65;;
31087;SDS011;17745;55.914;37.554;2022-10-16T02:26:27;15.00;;;5.95;;
31087;SDS011;17745;55.914;37.554;2022-10-16T02:28:59;20.98;;;7.00;;
31087;SDS011;17745;55.914;37.554;2022-10-16T02:31:32;18.65;;;6.40;;
31087;SDS011;17745;55.914;37.554;2022-10-16T02:34:06;10.00;;;6.12;;
31087;SDS011;17745;55.914;37.554;2022-10-16T02:36:38;11.55;;;5.82;;
31087;SDS011;17745;55.914;37.554;2022-10-16T02:39:09;10.77;;;5.75;;
31087;SDS011;17745;55.914;37.554;2022-10-16T02:41:38;11.10;;;6.35;;
31087;SDS011;17745;55.914;37.554;2022-10-16T02:44:07;12.85;;;5.72;;
31087;SDS011;17745;55.914;37.554;2022-10-16T02:46:43;10.57;;;5.80;;
31087;SDS011;17745;55.914;37.554;2022-10-16T02:49:37;10.05;;;5.70;;
31087;SDS011;17745;55.914;37.554;2022-10-16T02:52:53;12.23;;;5.35;;
31087;SDS011;17745;55.914;37.554;2022-10-16T02:55:34;12.57;;;5.70;;
31087;SDS011;17745;55.914;37.554;2022-10-16T02:58:04;12.23;;;6.10;;
31087;SDS011;17745;55.914;37.554;2022-10-16T03:00:33;13.23;;;6.00;;
31087;SDS011;17745;55.914;37.554;2022-10-16T03:03:05;16.52;;;5.57;;
31087;SDS011;17745;55.914;37.554;2022-10-16T03:05:33;13.23;;;5.87;;
31087;SDS011;17745;55.914;37.554;2022-10-16T03:08:03;9.05;;;5.43;;
31087;SDS011;17745;55.914;37.554;2022-10-16T03:10:31;11.73;;;5.82;;
31087;SDS011;17745;55.914;37.554;2022-10-16T03:13:01;10.95;;;5.95;;
31087;SDS011;17745;55.914;37.554;2022-10-16T03:15:29;12.15;;;5.65;;
31087;SDS011;17745;55.914;37.554;2022-10-16T03:18:01;11.18;;;5.70;;
31087;SDS011;17745;55.914;37.554;2022-10-16T03:20:31;10.73;;;5.80;;
31087;SDS011;17745;55.914;37.554;2022-10-16T03:23:01;11.32;;;5.65;;
31087;SDS011;17745;55.914;37.554;2022-10-16T03:25:55;10.05;;;5.72;;
31087;SDS011;17745;55.914;37.554;2022-10-16T03:28:27;11.70;;;5.87;;
31087;SDS011;17745;55.914;37.554;2022-10-16T03:30:56;10.68;;;5.22;;
31087;SDS011;17745;55.914;37.554;2022-10-16T03:33:24;9.75;;;5.50;;
31087;SDS011;17745;55.914;37.554;2022-10-16T03:35:53;12.80;;;6.03;;
31087;SDS011;17745;55.914;37.554;2022-10-16T03:38:22;10.25;;;5.43;;
31087;SDS011;17745;55.914;37.554;2022-10-16T03:40:51;12.25;;;6.15;;
31087;SDS011;17745;55.914;37.554;2022-10-16T03:43:20;11.95;;;5.53;;
31087;SDS011;17745;55.914;37.554;2022-10-16T03:45:49;10.02;;;5.40;;
31087;SDS011;17745;55.914;37.554;2022-10-16T03:48:19;12.30;;;6.28;;
31087;SDS011;17745;55.914;37.554;2022-10-16T03:50:47;9.07;;;5.32;;
31087;SDS011;17745;55.914;37.554;2022-10-16T03:53:25;12.52;;;5.35;;
31087;SDS011;17745;55.914;37.554;2022-10-16T03:55:58;15.05;;;6.18;;
31087;SDS011;17745;55.914;37.554;2022-10-16T03:58:27;15.00;;;6.50;;
31087;SDS011;17745;55.914;37.554;2022-10-16T04:00:55;10.40;;;5.97;;
31087;SDS011;17745;55.914;37.554;2022-10-16T04:03:23;13.13;;;5.68;;
31087;SDS011;17745;55.914;37.554;2022-10-16T04:05:51;13.73;;;5.50;;
31087;SDS011;17745;55.914;37.554;2022-10-16T04:08:18;11.73;;;5.85;;
31087;SDS011;17745;55.914;37.554;2022-10-16T04:10:48;11.35;;;5.37;;
31087;SDS011;17745;55.914;37.554;2022-10-16T04:13:28;12.05;;;5.50;;
31087;SDS011;17745;55.914;37.554;2022-10-16T04:16:24;9.55;;;5.85;;
31087;SDS011;17745;55.914;37.554;2022-10-16T04:18:52;9.82;;;5.70;;
31087;SDS011;17745;55.914;37.554;2022-10-16T04:21:23;20.70;;;6.40;;
31087;SDS011;17745;55.914;37.554;2022-10-16T04:24:16;11.12;;;5.40;;
31087;SDS011;17745;55.914;37.554;2022-10-16T04:39:03;12.18;;;5.72;;
31087;SDS011;17745;55.914;37.554;2022-10-16T04:41:53;13.70;;;5.75;;
31087;SDS011;17745;55.914;37.554;2022-10-16T04:44:45;14.95;;;6.62;;
31087;SDS011;17745;55.914;37.554;2022-10-16T04:47:50;12.70;;;6.00;;
31087;SDS011;17745;55.914;37.554;2022-10-16T04:51:35;12.18;;;6.40;;
31087;SDS011;17745;55.914;37.554;2022-10-16T05:19:55;16.45;;;6.62;;
31087;SDS011;17745;55.914;37.554;2022-10-16T05:22:32;13.68;;;6.65;;
31087;SDS011;17745;55.914;37.554;2022-10-16T05:25:06;13.65;;;6.72;;
31087;SDS011;17745;55.914;37.554;2022-10-16T05:27:34;10.93;;;5.87;;
31087;SDS011;17745;55.914;37.554;2022-10-16T05:30:05;13.98;;;6.43;;
31087;SDS011;17745;55.914;37.554;2022-10-16T05:32:41;15.07;;;6.25;;
31087;SDS011;17745;55.914;37.554;2022-10-16T05:38:14;11.07;;;6.05;;
31087;SDS011;17745;55.914;37.554;2022-10-16T05:41:09;13.68;;;6.10;;
31087;SDS011;17745;55.914;37.554;2022-10-16T05:44:12;13.48;;;6.55;;
31087;SDS011;17745;55.914;37.554;2022-10-16T05:47:12;10.00;;;6.05;;
31087;SDS011;17745;55.914;37.554;2022-10-16T05:53:00;11.45;;;6.50;;
31087;SDS011;17745;55.914;37.554;2022-10-16T05:55:30;17.73;;;7.20;;
31087;SDS011;17745;55.914;37.554;2022-10-16T05:58:28;13.95;;;6.43;;
31087;SDS011;17745;55.914;37.554;2022-10-16T06:01:20;14.15;;;6.43;;
31087;SDS011;17745;55.914;37.554;2022-10-16T06:04:01;12.90;;;6.30;;
31087;SDS011;17745;55.914;37.554;2022-10-16T06:06:39;17.52;;;6.00;;
31087;SDS011;17745;55.914;37.554;2022-10-16T06:09:23;13.05;;;6.70;;
31087;SDS011;17745;55.914;37.554;2022-10-16T06:11:55;13.75;;;7.30;;
31087;SDS011;17745;55.914;37.554;2022-10-16T06:14:27;15.35;;;6.87;;
31087;SDS011;17745;55.914;37.554;2022-10-16T06:17:20;15.55;;;6.22;;
31087;SDS011;17745;55.914;37.554;2022-10-16T06:19:53;9.38;;;6.15;;
31087;SDS011;17745;55.914;37.554;2022-10-16T06:22:31;13.38;;;6.07;;
31087;SDS011;17745;55.914;37.554;2022-10-16T06:25:03;12.23;;;6.37;;
31087;SDS011;17745;55.914;37.554;2022-10-16T06:27:34;16.87;;;6.50;;
31087;SDS011;17745;55.914;37.554;2022-10-16T06:30:09;12.55;;;7.03;;
31087;SDS011;17745;55.914;37.554;2022-10-16T06:32:39;16.48;;;6.93;;
31087;SDS011;17745;55.914;37.554;2022-10-16T06:35:13;13.77;;;6.80;;
31087;SDS011;17745;55.914;37.554;2022-10-16T06:37:47;16.73;;;7.50;;
31087;SDS011;17745;55.914;37.554;2022-10-16T06:40:25;19.23;;;7.32;;
31087;SDS011;17745;55.914;37.554;2022-10-16T06:43:15;17.48;;;6.22;;
31087;SDS011;17745;55.914;37.554;2022-10-16T06:45:52;15.00;;;6.93;;
31087;SDS011;17745;55.914;37.554;2022-10-16T06:48:26;13.38;;;6.62;;
31087;SDS011;17745;55.914;37.554;2022-10-16T06:51:02;10.73;;;7.03;;
31087;SDS011;17745;55.914;37.554;2022-10-16T06:53:34;10.98;;;6.00;;
31087;SDS011;17745;55.914;37.554;2022-10-16T07:02:46;18.70;;;6.07;;
31087;SDS011;17745;55.914;37.554;2022-10-16T07:06:35;15.32;;;6.82;;
31087;SDS011;17745;55.914;37.554;2022-10-16T07:21:49;14.75;;;6.80;;
31087;SDS011;17745;55.914;37.554;2022-10-16T07:25:14;16.25;;;7.78;;
31087;SDS011;17745;55.914;37.554;2022-10-16T07:35:21;14.77;;;6.65;;
31087;SDS011;17745;55.914;37.554;2022-10-16T07:37:52;12.77;;;6.20;;
31087;SDS011;17745;55.914;37.554;2022-10-16T07:43:58;14.57;;;6.40;;
31087;SDS011;17745;55.914;37.554;2022-10-16T07:50:10;15.95;;;6.28;;
31087;SDS011;17745;55.914;37.554;2022-10-16T07:52:43;12.63;;;6.25;;
31087;SDS011;17745;55.914;37.554;2022-10-16T07:55:13;11.23;;;6.07;;
31087;SDS011;17745;55.914;37.554;2022-10-16T07:57:42;20.15;;;6.72;;
31087;SDS011;17745;55.914;37.554;2022-10-16T08:02:59;19.25;;;6.97;;
31087;SDS011;17745;55.914;37.554;2022-10-16T08:05:31;17.27;;;6.80;;
31087;SDS011;17745;55.914;37.554;2022-10-16T08:08:02;18.52;;;6.47;;
31087;SDS011;17745;55.914;37.554;2022-10-16T08:10:35;15.70;;;6.90;;
31087;SDS011;17745;55.914;37.554;2022-10-16T08:13:04;12.80;;;5.95;;
31087;SDS011;17745;55.914;37.554;2022-10-16T08:15:48;15.75;;;6.15;;
31087;SDS011;17745;55.914;37.554;2022-10-16T08:18:22;16.12;;;6.68;;
31087;SDS011;17745;55.914;37.554;2022-10-16T08:20:55;18.90;;;6.12;;
31087;SDS011;17745;55.914;37.554;2022-10-16T08:23:28;13.73;;;6.07;;
31087;SDS011;17745;55.914;37.554;2022-10-16T08:26:01;14.68;;;5.50;;
31087;SDS011;17745;55.914;37.554;2022-10-16T08:28:48;15.25;;;6.37;;
31087;SDS011;17745;55.914;37.554;2022-10-16T08:31:27;9.02;;;6.05;;
31087;SDS011;17745;55.914;37.554;2022-10-16T08:34:02;17.77;;;6.55;;
31087;SDS011;17745;55.914;37.554;2022-10-16T08:36:33;13.10;;;5.75;;
31087;SDS011;17745;55.914;37.554;2022-10-16T08:39:02;13.77;;;6.18;;
31087;SDS011;17745;55.914;37.554;2022-10-16T08:41:56;26.45;;;6.57;;
31087;SDS011;17745;55.914;37.554;2022-10-16T09:06:24;12.05;;;6.03;;
31087;SDS011;17745;55.914;37.554;2022-10-16T09:26:13;10.90;;;5.03;;
31087;SDS011;17745;55.914;37.554;2022-10-16T09:29:04;11.65;;;5.05;;
31087;SDS011;17745;55.914;37.554;2022-10-16T09:31:57;12.82;;;5.57;;
31087;SDS011;17745;55.914;37.554;2022-10-16T09:35:02;12.60;;;5.35;;
31087;SDS011;17745;55.914;37.554;2022-10-16T09:40:33;10.55;;;5.15;;
31087;SDS011;17745;55.914;37.554;2022-10-16T09:43:23;14.95;;;5.95;;
31087;SDS011;17745;55.914;37.554;2022-10-16T09:46:20;12.43;;;5.20;;
31087;SDS011;17745;55.914;37.554;2022-10-16T09:52:02;15.88;;;5.87;;
31087;SDS011;17745;55.914;37.554;2022-10-16T09:54:55;15.70;;;5.35;;
31087;SDS011;17745;55.914;37.554;2022-10-16T09:57:33;16.60;;;5.57;;
31087;SDS011;17745;55.914;37.554;2022-10-16T10:00:15;15.63;;;5.28;;
31087;SDS011;17745;55.914;37.554;2022-10-16T10:03:48;17.52;;;4.57;;
31087;SDS011;17745;55.914;37.554;2022-10-16T10:40:56;18.77;;;4.70;;
31087;SDS011;17745;55.914;37.554;2022-10-16T10:43:59;16.92;;;4.25;;
31087;SDS011;17745;55.914;37.554;2022-10-16T10:46:54;12.23;;;4.20;;
31087;SDS011;17745;55.914;37.554;2022-10-16T10:50:23;12.40;;;3.65;;
31087;SDS011;17745;55.914;37.554;2022-10-16T10:53:36;12.07;;;4.20;;
31087;SDS011;17745;55.914;37.554;2022-10-16T11:06:40;8.27;;;4.15;;
31087;SDS011;17745;55.914;37.554;2022-10-16T11:09:15;11.85;;;4.43;;
31087;SDS011;17745;55.914;37.554;2022-10-16T11:15:51;12.10;;;4.37;;
31087;SDS011;17745;55.914;37.554;2022-10-16T11:18:38;10.02;;;4.18;;
31087;SDS011;17745;55.914;37.554;2022-10-16T11:21:21;15.88;;;4.25;;
31087;SDS011;17745;55.914;37.554;2022-10-16T11:24:23;11.85;;;4.55;;
31087;SDS011;17745;55.914;37.554;2022-10-16T11:27:15;16.35;;;5.53;;
31087;SDS011;17745;55.914;37.554;2022-10-16T11:30:14;12.18;;;4.55;;
31087;SDS011;17745;55.914;37.554;2022-10-16T11:33:04;18.23;;;4.43;;
31087;SDS011;17745;55.914;37.554;2022-10-16T11:58:39;13.38;;;4.72;;
31087;SDS011;17745;55.914;37.554;2022-10-16T12:01:28;12.88;;;4.97;;
31087;SDS011;17745;55.914;37.554;2022-10-16T12:04:36;11.60;;;5.22;;
31087;SDS011;17745;55.914;37.554;2022-10-16T12:08:24;11.40;;;4.15;;
31087;SDS011;17745;55.914;37.554;2022-10-16T12:11:03;9.52;;;4.22;;
31087;SDS011;17745;55.914;37.554;2022-10-16T12:13:38;14.02;;;4.78;;
31087;SDS011;17745;55.914;37.554;2022-10-16T12:19:11;12.73;;;5.05;;
31087;SDS011;17745;55.914;37.554;2022-10-16T12:22:00;13.65;;;4.90;;
31087;SDS011;17745;55.914;37.554;2022-10-16T12:24:34;14.15;;;4.35;;
31087;SDS011;17745;55.914;37.554;2022-10-16T12:27:25;10.90;;;4.57;;
31087;SDS011;17745;55.914;37.554;2022-10-16T12:30:03;10.07;;;3.95;;
31087;SDS011;17745;55.914;37.554;2022-10-16T12:32:37;15.60;;;4.72;;
31087;SDS011;17745;55.914;37.554;2022-10-16T12:35:17;15.00;;;5.22;;
31087;SDS011;17745;55.914;37.554;2022-10-16T12:37:50;9.27;;;4.50;;
31087;SDS011;17745;55.914;37.554;2022-10-16T12:40:41;13.18;;;4.45;;
31087;SDS011;17745;55.914;37.554;2022-10-16T12:43:28;10.18;;;4.20;;
31087;SDS011;17745;55.914;37.554;2022-10-16T12:46:33;18.40;;;4.40;;
31087;SDS011;17745;55.914;37.554;2022-10-16T12:49:29;12.88;;;4.45;;
31087;SDS011;17745;55.914;37.554;2022-10-16T12:52:02;14.02;;;4.97;;
31087;SDS011;17745;55.914;37.554;2022-10-16T13:22:16;14.52;;;4.72;;
31087;SDS011;17745;55.914;37.554;2022-10-16T13:24:54;19.12;;;5.10;;
31087;SDS011;17745;55.914;37.554;2022-10-16T13:27:34;11.57;;;5.35;;
31087;SDS011;17745;55.914;37.554;2022-10-16T13:30:12;20.98;;;5.25;;
31087;SDS011;17745;55.914;37.554;2022-10-16T13:32:44;13.85;;;5.25;;
31087;SDS011;17745;55.914;37.554;2022-10-16T13:35:19;13.52;;;5.72;;
31087;SDS011;17745;55.914;37.554;2022-10-16T13:37:50;11.48;;;4.93;;
31087;SDS011;17745;55.914;37.554;2022-10-16T13:40:20;14.57;;;5.35;;
31087;SDS011;17745;55.914;37.554;2022-10-16T13:42:54;10.05;;;4.70;;
31087;SDS011;17745;55.914;37.554;2022-10-16T13:45:24;13.05;;;5.43;;
31087;SDS011;17745;55.914;37.554;2022-10-16T13:48:01;20.02;;;6.90;;
31087;SDS011;17745;55.914;37.554;2022-10-16T13:50:39;9.43;;;5.00;;
31087;SDS011;17745;55.914;37.554;2022-10-16T14:04:02;15.73;;;5.55;;
31087;SDS011;17745;55.914;37.554;2022-10-16T14:06:33;17.52;;;6.28;;
31087;SDS011;17745;55.914;37.554;2022-10-16T14:09:33;10.70;;;5.07;;
31087;SDS011;17745;55.914;37.554;2022-10-16T14:12:12;14.80;;;5.72;;
31087;SDS011;17745;55.914;37.554;2022-10-16T14:14:54;13.15;;;5.43;;
31087;SDS011;17745;55.914;37.554;2022-10-16T14:22:00;13.43;;;5.53;;
31087;SDS011;17745;55.914;37.554;2022-10-16T14:29:36;19.55;;;5.90;;
31087;SDS011;17745;55.914;37.554;2022-10-16T14:32:26;11.15;;;5.65;;
31087;SDS011;17745;55.914;37.554;2022-10-16T14:36:19;14.80;;;5.65;;
31087;SDS011;17745;55.914;37.554;2022-10-16T14:39:34;16.40;;;5.60;;
31087;SDS011;17745;55.914;37.554;2022-10-16T14:42:22;15.30;;;6.03;;
31087;SDS011;17745;55.914;37.554;2022-10-16T14:45:30;11.82;;;4.95;;
31087;SDS011;17745;55.914;37.554;2022-10-16T14:48:19;11.30;;;5.37;;
31087;SDS011;17745;55.914;37.554;2022-10-16T14:54:12;13.32;;;5.72;;
31087;SDS011;17745;55.914;37.554;2022-10-16T14:56:53;12.35;;;5.45;;
31087;SDS011;17745;55.914;37.554;2022-10-16T14:59:39;11.85;;;5.15;;
31087;SDS011;17745;55.914;37.554;2022-10-16T15:02:18;15.32;;;5.18;;
31087;SDS011;17745;55.914;37.554;2022-10-16T15:05:01;13.40;;;5.00;;
31087;SDS011;17745;55.914;37.554;2022-10-16T15:08:16;10.18;;;4.90;;
31087;SDS011;17745;55.914;37.554;2022-10-16T15:11:03;8.35;;;4.45;;
31087;SDS011;17745;55.914;37.554;2022-10-16T15:13:50;13.70;;;5.12;;
31087;SDS011;17745;55.914;37.554;2022-10-16T15:16:34;12.75;;;5.55;;
31087;SDS011;17745;55.914;37.554;2022-10-16T15:19:13;17.48;;;5.15;;
31087;SDS011;17745;55.914;37.554;2022-10-16T15:22:46;13.80;;;5.40;;
31087;SDS011;17745;55.914;37.554;2022-10-16T15:31:42;11.95;;;4.22;;
31087;SDS011;17745;55.914;37.554;2022-10-16T15:34:59;12.88;;;4.75;;
31087;SDS011;17745;55.914;37.554;2022-10-16T15:37:37;15.30;;;5.15;;
31087;SDS011;17745;55.914;37.554;2022-10-16T15:44:11;9.60;;;4.70;;
31087;SDS011;17745;55.914;37.554;2022-10-16T15:47:08;13.10;;;4.65;;
31087;SDS011;17745;55.914;37.554;2022-10-16T15:49:39;11.15;;;4.82;;
31087;SDS011;17745;55.914;37.554;2022-10-16T15:52:23;9.25;;;4.62;;
31087;SDS011;17745;55.914;37.554;2022-10-16T15:54:52;11.15;;;5.32;;
31087;SDS011;17745;55.914;37.554;2022-10-16T15:57:30;14.77;;;4.75;;
31087;SDS011;17745;55.914;37.554;2022-10-16T16:00:10;13.45;;;5.22;;
31087;SDS011;17745;55.914;37.554;2022-10-16T16:03:19;14.23;;;4.90;;
31087;SDS011;17745;55.914;37.554;2022-10-16T16:05:52;11.70;;;4.60;;
31087;SDS011;17745;55.914;37.554;2022-10-16T16:08:58;10.25;;;4.43;;
31087;SDS011;17745;55.914;37.554;2022-10-16T16:11:30;16.67;;;5.18;;
31087;SDS011;17745;55.914;37.554;2022-10-16T16:14:03;13.13;;;4.50;;
31087;SDS011;17745;55.914;37.554;2022-10-16T16:16:53;18.25;;;4.85;;
31087;SDS011;17745;55.914;37.554;2022-10-16T16:19:22;10.82;;;4.70;;
31087;SDS011;17745;55.914;37.554;2022-10-16T16:21:56;11.43;;;5.20;;
31087;SDS011;17745;55.914;37.554;2022-10-16T16:24:27;9.82;;;4.65;;
31087;SDS011;17745;55.914;37.554;2022-10-16T16:27:08;15.02;;;5.30;;
31087;SDS011;17745;55.914;37.554;2022-10-16T16:29:41;14.75;;;5.10;;
31087;SDS011;17745;55.914;37.554;2022-10-16T16:32:15;10.15;;;5.10;;
31087;SDS011;17745;55.914;37.554;2022-10-16T16:34:45;9.43;;;5.22;;
31087;SDS011;17745;55.914;37.554;2022-10-16T16:37:16;14.18;;;5.07;;
31087;SDS011;17745;55.914;37.554;2022-10-16T16:39:47;10.43;;;4.35;;
31087;SDS011;17745;55.914;37.554;2022-10-16T16:45:37;8.90;;;4.90;;
31087;SDS011;17745;55.914;37.554;2022-10-16T16:48:21;11.20;;;4.53;;
31087;SDS011;17745;55.914;37.554;2022-10-16T16:51:07;18.35;;;4.78;;
31087;SDS011;17745;55.914;37.554;2022-10-16T17:21:03;12.68;;;5.03;;
31087;SDS011;17745;55.914;37.554;2022-10-16T17:23:34;11.63;;;5.10;;
31087;SDS011;17745;55.914;37.554;2022-10-16T17:26:05;14.10;;;4.75;;
31087;SDS011;17745;55.914;37.554;2022-10-16T17:28:35;11.88;;;4.90;;
31087;SDS011;17745;55.914;37.554;2022-10-16T17:31:08;14.10;;;5.43;;
31087;SDS011;17745;55.914;37.554;2022-10-16T17:33:37;12.57;;;5.22;;
31087;SDS011;17745;55.914;37.554;2022-10-16T17:36:12;13.15;;;5.05;;
31087;SDS011;17745;55.914;37.554;2022-10-16T17:39:05;13.05;;;5.45;;
31087;SDS011;17745;55.914;37.554;2022-10-16T17:42:02;11.35;;;5.05;;
31087;SDS011;17745;55.914;37.554;2022-10-16T17:44:48;12.57;;;5.18;;
31087;SDS011;17745;55.914;37.554;2022-10-16T17:47:20;18.17;;;5.12;;
31087;SDS011;17745;55.914;37.554;2022-10-16T17:53:52;15.18;;;5.07;;
31087;SDS011;17745;55.914;37.554;2022-10-16T18:23:58;8.13;;;4.70;;
31087;SDS011;17745;55.914;37.554;2022-10-16T18:29:24;10.40;;;4.72;;
31087;SDS011;17745;55.914;37.554;2022-10-16T18:31:57;13.52;;;5.35;;
31087;SDS011;17745;55.914;37.554;2022-10-16T18:34:32;11.77;;;4.57;;
31087;SDS011;17745;55.914;37.554;2022-10-16T18:37:08;10.57;;;5.07;;
31087;SDS011;17745;55.914;37.554;2022-10-16T18:46:15;10.80;;;5.00;;
31087;SDS011;17745;55.914;37.554;2022-10-16T18:49:04;10.45;;;4.72;;
31087;SDS011;17745;55.914;37.554;2022-10-16T18:51:41;12.18;;;5.10;;
31087;SDS011;17745;55.914;37.554;2022-10-16T18:54:26;12.50;;;5.25;;
31087;SDS011;17745;55.914;37.554;2022-10-16T18:57:17;13.13;;;5.22;;
31087;SDS011;17745;55.914;37.554;2022-10-16T18:59:53;11.27;;;4.75;;
31087;SDS011;17745;55.914;37.554;2022-10-16T19:02:26;7.75;;;4.53;;
31087;SDS011;17745;55.914;37.554;2022-10-16T19:05:07;9.85;;;5.25;;
31087;SDS011;17745;55.914;37.554;2022-10-16T19:07:44;9.88;;;5.25;;
31087;SDS011;17745;55.914;37.554;2022-10-16T19:10:19;17.00;;;5.45;;
31087;SDS011;17745;55.914;37.554;2022-10-16T19:12:54;9.35;;;5.10;;
31087;SDS011;17745;55.914;37.554;2022-10-16T19:15:32;10.93;;;4.90;;
31087;SDS011;17745;55.914;37.554;2022-10-16T19:18:02;10.43;;;4.80;;
31087;SDS011;17745;55.914;37.554;2022-10-16T19:20:30;15.10;;;4.82;;
31087;SDS011;17745;55.914;37.554;2022-10-16T19:25:35;8.52;;;5.03;;
31087;SDS011;17745;55.914;37.554;2022-10-16T19:28:17;9.65;;;4.85;;
31087;SDS011;17745;55.914;37.554;2022-10-16T19:30:54;10.60;;;5.50;;
31087;SDS011;17745;55.914;37.554;2022-10-16T19:33:26;8.50;;;4.20;;
31087;SDS011;17745;55.914;37.554;2022-10-16T19:36:05;17.92;;;5.47;;
31087;SDS011;17745;55.914;37.554;2022-10-16T19:39:06;13.65;;;4.95;;
31087;SDS011;17745;55.914;37.554;2022-10-16T19:41:42;9.93;;;4.87;;
31087;SDS011;17745;55.914;37.554;2022-10-16T19:44:14;9.45;;;4.70;;
31087;SDS011;17745;55.914;37.554;2022-10-16T19:46:55;9.93;;;4.18;;
31087;SDS011;17745;55.914;37.554;2022-10-16T19:49:28;14.15;;;4.47;;
31087;SDS011;17745;55.914;37.554;2022-10-16T19:52:05;10.85;;;4.47;;
31087;SDS011;17745;55.914;37.554;2022-10-16T19:54:35;12.10;;;4.70;;
31087;SDS011;17745;55.914;37.554;2022-10-16T19:57:10;10.32;;;4.72;;
31087;SDS011;17745;55.914;37.554;2022-10-16T19:59:45;11.52;;;5.22;;
31087;SDS011;17745;55.914;37.554;2022-10-16T20:02:44;9.15;;;4.37;;
31087;SDS011;17745;55.914;37.554;2022-10-16T20:05:55;16.23;;;4.75;;
31087;SDS011;17745;55.914;37.554;2022-10-16T20:08:49;18.98;;;4.82;;
31087;SDS011;17745;55.914;37.554;2022-10-16T20:11:35;12.37;;;4.70;;
31087;SDS011;17745;55.914;37.554;2022-10-16T20:14:06;8.45;;;4.30;;
31087;SDS011;17745;55.914;37.554;2022-10-16T20:16:42;8.57;;;4.85;;
31087;SDS011;17745;55.914;37.554;2022-10-16T20:19:22;8.98;;;4.85;;
